Time;durP1;ratioP1;P1;durP2;ratioP2;P2;SDS_P1;SDS_P2;PMS_P1;PMS_P2;Temp;Humidity;BMP_temperature;BMP_pressure;BME280_temperature;BME280_humidity;BME280_pressure;Samples;Min_cycle;Max_cycle;Signal;HPM_P1;HPM_P2
2023/05/15 00:01:44;;;;;;;25.47;21.30;;;;;;;;;;5082661;28;20487;-78
2023/05/15 00:04:11;;;;;;;24.70;21.50;;;;;;;;;;5088289;28;20460;-77
2023/05/15 00:06:38;;;;;;;25.97;21.73;;;;;;;;;;5081663;28;20488;-77
2023/05/15 00:09:04;;;;;;;27.70;22.40;;;;;;;;;;5090398;28;20479;-78
2023/05/15 00:11:31;;;;;;;23.67;21.10;;;;;;;;;;5090660;28;20558;-78
2023/05/15 00:13:59;;;;;;;25.00;19.80;;;;;;;;;;5091814;28;20452;-77
2023/05/15 00:16:25;;;;;;;25.63;20.33;;;;;;;;;;5085599;28;20479;-78
2023/05/15 00:18:52;;;;;;;29.90;22.30;;;;;;;;;;5086943;28;20451;-78
2023/05/15 00:21:18;;;;;;;22.20;19.80;;;;;;;;;;5082254;28;20488;-78
2023/05/15 00:23:46;;;;;;;23.60;20.13;;;;;;;;;;5086989;28;20454;-76
2023/05/15 00:26:14;;;;;;;23.40;20.13;;;;;;;;;;5091644;28;20497;-77
2023/05/15 00:28:41;;;;;;;26.10;21.03;;;;;;;;;;5094719;28;20467;-77
2023/05/15 00:31:09;;;;;;;24.27;20.43;;;;;;;;;;5096676;28;20483;-77
2023/05/15 00:33:35;;;;;;;25.17;21.03;;;;;;;;;;5097051;28;20518;-77
2023/05/15 00:36:02;;;;;;;26.20;20.47;;;;;;;;;;5101323;28;20475;-77
2023/05/15 00:38:28;;;;;;;22.87;20.00;;;;;;;;;;5093627;28;20481;-78
2023/05/15 00:40:55;;;;;;;22.87;20.27;;;;;;;;;;5094107;28;20856;-78
2023/05/15 00:43:22;;;;;;;25.43;21.23;;;;;;;;;;5095238;28;20450;-77
2023/05/15 00:45:49;;;;;;;25.93;21.20;;;;;;;;;;5087851;28;20569;-77
2023/05/15 00:48:18;;;;;;;23.47;19.70;;;;;;;;;;5093149;28;20451;-77
2023/05/15 00:50:45;;;;;;;23.93;20.80;;;;;;;;;;5084239;28;20481;-77
2023/05/15 00:53:11;;;;;;;24.17;21.57;;;;;;;;;;5091377;28;20451;-77
2023/05/15 00:55:39;;;;;;;22.47;20.07;;;;;;;;;;5093383;28;20502;-76
2023/05/15 00:58:06;;;;;;;24.27;20.77;;;;;;;;;;5088245;28;20451;-76
2023/05/15 01:00:33;;;;;;;22.53;20.10;;;;;;;;;;5090358;28;20520;-76
2023/05/15 01:03:00;;;;;;;23.43;19.83;;;;;;;;;;5092229;28;20455;-76
2023/05/15 01:05:28;;;;;;;22.57;20.17;;;;;;;;;;5090284;28;20463;-76
2023/05/15 01:07:57;;;;;;;23.47;20.13;;;;;;;;;;5089039;28;20521;-76
2023/05/15 01:10:24;;;;;;;24.63;21.93;;;;;;;;;;5087400;28;21156;-75
2023/05/15 01:12:53;;;;;;;22.23;19.93;;;;;;;;;;5089153;28;20506;-76
2023/05/15 01:15:19;;;;;;;22.37;19.97;;;;;;;;;;5096269;28;20460;-76
2023/05/15 01:17:46;;;;;;;23.17;19.83;;;;;;;;;;5087814;28;20620;-76
2023/05/15 01:20:13;;;;;;;23.17;19.70;;;;;;;;;;5092895;28;20469;-76
2023/05/15 01:22:58;;;;;;;23.83;20.37;;;;;;;;;;5088962;28;20524;-77
2023/05/15 01:25:53;;;;;;;23.03;19.90;;;;;;;;;;5087867;28;20967;-78
2023/05/15 01:28:22;;;;;;;23.83;20.50;;;;;;;;;;5090688;28;20542;-77
2023/05/15 01:30:49;;;;;;;26.67;20.93;;;;;;;;;;5094009;28;20471;-77
2023/05/15 01:33:18;;;;;;;23.40;19.87;;;;;;;;;;5088550;28;20486;-77
2023/05/15 01:35:46;;;;;;;22.87;20.47;;;;;;;;;;5087783;28;20533;-77
2023/05/15 01:38:18;;;;;;;25.30;21.87;;;;;;;;;;5086028;28;20920;-75
2023/05/15 01:40:46;;;;;;;26.70;21.17;;;;;;;;;;5091602;28;20467;-76
2023/05/15 01:43:16;;;;;;;23.63;19.30;;;;;;;;;;5086252;28;21017;-76
2023/05/15 01:45:44;;;;;;;24.10;20.93;;;;;;;;;;5082293;28;20502;-77
2023/05/15 01:48:13;;;;;;;24.20;21.60;;;;;;;;;;5088426;28;20779;-77
2023/05/15 01:50:40;;;;;;;33.33;22.67;;;;;;;;;;5089101;28;20498;-76
2023/05/15 01:53:07;;;;;;;27.83;23.90;;;;;;;;;;5092349;28;20462;-76
2023/05/15 01:55:34;;;;;;;26.17;23.20;;;;;;;;;;5086161;28;20484;-77
2023/05/15 01:58:01;;;;;;;30.30;25.10;;;;;;;;;;5089912;28;20483;-77
2023/05/15 02:00:28;;;;;;;29.40;26.17;;;;;;;;;;5092244;28;20553;-78
2023/05/15 02:02:57;;;;;;;30.90;26.13;;;;;;;;;;5084787;28;21121;-78
2023/05/15 02:05:24;;;;;;;32.20;25.80;;;;;;;;;;5085290;28;20459;-78
2023/05/15 02:07:50;;;;;;;31.23;24.23;;;;;;;;;;5083984;28;20470;-77
2023/05/15 02:10:18;;;;;;;29.97;24.27;;;;;;;;;;5083523;28;20551;-77
2023/05/15 02:12:45;;;;;;;30.90;24.97;;;;;;;;;;5087420;28;20447;-77
2023/05/15 02:15:11;;;;;;;30.67;24.20;;;;;;;;;;5090103;28;20468;-75
2023/05/15 02:17:38;;;;;;;28.60;22.87;;;;;;;;;;5087708;28;20543;-77
2023/05/15 02:20:07;;;;;;;28.20;23.53;;;;;;;;;;5080118;28;20451;-77
2023/05/15 02:22:34;;;;;;;28.23;23.70;;;;;;;;;;5083810;28;20532;-77
2023/05/15 02:25:00;;;;;;;28.97;25.70;;;;;;;;;;5086324;28;20447;-77
2023/05/15 02:27:27;;;;;;;27.07;23.33;;;;;;;;;;5086979;28;20529;-77
2023/05/15 02:30:06;;;;;;;27.50;22.97;;;;;;;;;;5089039;28;20481;-77
2023/05/15 02:32:38;;;;;;;30.13;23.33;;;;;;;;;;5087023;28;20460;-77
2023/05/15 02:35:12;;;;;;;29.83;24.17;;;;;;;;;;5083774;28;21247;-76
2023/05/15 02:37:39;;;;;;;24.50;21.43;;;;;;;;;;5083671;28;20491;-77
2023/05/15 02:40:08;;;;;;;27.50;23.90;;;;;;;;;;5090892;28;20454;-77
2023/05/15 02:42:36;;;;;;;27.27;23.87;;;;;;;;;;5083493;28;20477;-77
2023/05/15 02:45:02;;;;;;;27.37;23.43;;;;;;;;;;5091811;28;20484;-77
2023/05/15 02:47:29;;;;;;;28.70;23.80;;;;;;;;;;5094740;28;20494;-77
2023/05/15 02:49:56;;;;;;;31.03;24.97;;;;;;;;;;5090994;28;20456;-77
2023/05/15 02:52:24;;;;;;;28.97;24.17;;;;;;;;;;5084019;28;20604;-77
2023/05/15 02:54:51;;;;;;;31.17;25.10;;;;;;;;;;5094518;28;20462;-77
2023/05/15 02:57:17;;;;;;;30.90;25.70;;;;;;;;;;5082612;28;21057;-77
2023/05/15 02:59:44;;;;;;;29.77;25.70;;;;;;;;;;5092506;28;20517;-76
2023/05/15 03:02:10;;;;;;;30.50;27.07;;;;;;;;;;5088229;28;20479;-77
2023/05/15 03:04:37;;;;;;;35.30;28.10;;;;;;;;;;5094865;28;21055;-77
2023/05/15 03:07:04;;;;;;;34.47;27.43;;;;;;;;;;5086281;28;20502;-77
2023/05/15 03:09:31;;;;;;;29.57;25.00;;;;;;;;;;5089228;28;20472;-78
2023/05/15 03:11:58;;;;;;;31.30;26.23;;;;;;;;;;5090426;28;20494;-78
2023/05/15 03:14:24;;;;;;;32.63;26.50;;;;;;;;;;5086461;28;20477;-78
2023/05/15 03:16:51;;;;;;;28.10;25.00;;;;;;;;;;5088106;28;20510;-77
2023/05/15 03:19:17;;;;;;;31.43;25.73;;;;;;;;;;5081858;28;20955;-77
2023/05/15 03:21:44;;;;;;;30.50;25.20;;;;;;;;;;5081997;28;20476;-76
2023/05/15 03:24:10;;;;;;;26.40;23.30;;;;;;;;;;5097632;28;20456;-77
2023/05/15 03:26:39;;;;;;;28.57;24.40;;;;;;;;;;5082280;28;20582;-77
2023/05/15 03:29:05;;;;;;;31.33;26.00;;;;;;;;;;5088130;28;20490;-76
2023/05/15 03:31:32;;;;;;;35.10;26.07;;;;;;;;;;5084557;28;20475;-77
2023/05/15 03:33:58;;;;;;;28.87;25.20;;;;;;;;;;5082680;28;20452;-77
2023/05/15 03:36:25;;;;;;;30.20;25.10;;;;;;;;;;5082270;28;20502;-77
2023/05/15 03:38:51;;;;;;;39.33;27.73;;;;;;;;;;5084476;28;21266;-77
2023/05/15 03:41:18;;;;;;;30.93;24.37;;;;;;;;;;5081957;28;20562;-77
2023/05/15 03:43:45;;;;;;;35.20;27.00;;;;;;;;;;5082407;28;20503;-77
2023/05/15 03:46:12;;;;;;;34.60;27.13;;;;;;;;;;5086186;28;20793;-77
2023/05/15 03:48:38;;;;;;;32.10;26.00;;;;;;;;;;5087812;28;20455;-76
2023/05/15 03:51:05;;;;;;;33.27;27.47;;;;;;;;;;5082772;28;20487;-77
2023/05/15 03:53:31;;;;;;;33.07;26.73;;;;;;;;;;5089729;28;20451;-78
2023/05/15 03:55:58;;;;;;;37.30;29.73;;;;;;;;;;5086166;28;20488;-79
2023/05/15 03:58:24;;;;;;;30.60;27.10;;;;;;;;;;5083393;28;20491;-79
2023/05/15 04:00:53;;;;;;;33.03;27.30;;;;;;;;;;5087651;28;20463;-78
2023/05/15 04:03:19;;;;;;;31.93;25.70;;;;;;;;;;5088875;28;20484;-78
2023/05/15 04:05:48;;;;;;;30.40;27.10;;;;;;;;;;5088719;28;20472;-77
2023/05/15 04:08:15;;;;;;;29.70;26.03;;;;;;;;;;5084564;28;20476;-79
2023/05/15 04:10:41;;;;;;;27.77;24.77;;;;;;;;;;5080583;28;20524;-79
2023/05/15 04:13:08;;;;;;;29.47;25.60;;;;;;;;;;5084934;28;20459;-79
2023/05/15 04:15:35;;;;;;;28.53;25.43;;;;;;;;;;5087075;28;20459;-79
2023/05/15 04:18:03;;;;;;;29.10;24.53;;;;;;;;;;5088740;28;20487;-80
2023/05/15 04:20:29;;;;;;;27.90;24.70;;;;;;;;;;5085802;28;20483;-79
2023/05/15 04:22:56;;;;;;;27.53;24.60;;;;;;;;;;5081943;28;20460;-79
2023/05/15 04:25:23;;;;;;;27.10;24.23;;;;;;;;;;5077403;28;20486;-78
2023/05/15 04:27:49;;;;;;;26.03;22.20;;;;;;;;;;5080027;28;20460;-78
2023/05/15 04:30:16;;;;;;;25.50;22.80;;;;;;;;;;5085805;28;20494;-79
2023/05/15 04:32:42;;;;;;;25.20;22.60;;;;;;;;;;5081301;28;20478;-81
2023/05/15 04:35:12;;;;;;;24.23;21.90;;;;;;;;;;5083192;28;20452;-82
2023/05/15 04:37:39;;;;;;;24.23;21.77;;;;;;;;;;5080100;28;20491;-80
2023/05/15 04:40:06;;;;;;;23.23;20.90;;;;;;;;;;5085588;28;21010;-82
2023/05/15 04:42:33;;;;;;;21.63;19.73;;;;;;;;;;5088954;28;20457;-81
2023/05/15 04:45:00;;;;;;;19.57;17.73;;;;;;;;;;5085873;28;20459;-81
2023/05/15 04:47:26;;;;;;;17.87;16.13;;;;;;;;;;5089949;28;20475;-81
2023/05/15 04:49:53;;;;;;;18.30;16.80;;;;;;;;;;5083761;28;20447;-81
2023/05/15 04:52:21;;;;;;;17.10;15.70;;;;;;;;;;5085657;28;20505;-82
2023/05/15 04:54:49;;;;;;;18.07;16.20;;;;;;;;;;5082375;28;20464;-79
2023/05/15 04:57:16;;;;;;;17.70;15.53;;;;;;;;;;5090237;28;20571;-81
2023/05/15 04:59:43;;;;;;;17.83;16.23;;;;;;;;;;5089230;28;20513;-81
2023/05/15 05:02:09;;;;;;;16.17;14.67;;;;;;;;;;5083669;28;20475;-80
2023/05/15 05:04:35;;;;;;;16.30;14.90;;;;;;;;;;5095740;28;20459;-82
2023/05/15 05:07:04;;;;;;;16.60;15.10;;;;;;;;;;5087749;28;20479;-81
2023/05/15 05:09:32;;;;;;;15.10;13.80;;;;;;;;;;5090536;28;21256;-80
2023/05/15 05:11:58;;;;;;;17.53;14.13;;;;;;;;;;5086662;28;20517;-81
2023/05/15 05:14:26;;;;;;;13.87;12.60;;;;;;;;;;5086371;28;20511;-80
2023/05/15 05:16:52;;;;;;;16.97;15.40;;;;;;;;;;5083759;28;20479;-77
2023/05/15 05:19:20;;;;;;;15.30;14.00;;;;;;;;;;5076265;28;20451;-80
2023/05/15 05:21:46;;;;;;;14.07;12.87;;;;;;;;;;5083321;28;20487;-80
2023/05/15 05:24:13;;;;;;;14.70;13.50;;;;;;;;;;5084500;28;20455;-80
2023/05/15 05:26:43;;;;;;;14.87;13.50;;;;;;;;;;5084518;28;20476;-80
2023/05/15 05:29:09;;;;;;;13.00;11.97;;;;;;;;;;5084061;28;20444;-80
2023/05/15 05:31:36;;;;;;;12.30;11.30;;;;;;;;;;5085296;28;20583;-79
2023/05/15 05:34:02;;;;;;;12.60;11.70;;;;;;;;;;5089859;28;20451;-80
2023/05/15 05:36:29;;;;;;;12.40;11.40;;;;;;;;;;5084268;28;20505;-79
2023/05/15 05:38:55;;;;;;;13.37;12.27;;;;;;;;;;5084263;28;20496;-79
2023/05/15 05:41:22;;;;;;;14.90;13.67;;;;;;;;;;5082981;28;20475;-78
2023/05/15 05:43:50;;;;;;;16.47;14.97;;;;;;;;;;5089687;28;20456;-79
2023/05/15 05:46:16;;;;;;;14.27;12.83;;;;;;;;;;5083154;28;20528;-79
2023/05/15 05:48:43;;;;;;;13.70;11.90;;;;;;;;;;5090009;28;20456;-79
2023/05/15 05:51:09;;;;;;;12.03;11.03;;;;;;;;;;5083820;28;20471;-79
2023/05/15 05:53:35;;;;;;;11.60;10.60;;;;;;;;;;5084031;28;20443;-79
2023/05/15 05:56:02;;;;;;;11.87;10.93;;;;;;;;;;5083378;28;20480;-79
2023/05/15 05:58:28;;;;;;;10.53;9.63;;;;;;;;;;5087642;28;20479;-79
2023/05/15 06:00:56;;;;;;;10.13;9.43;;;;;;;;;;5088730;28;20455;-79
2023/05/15 06:03:23;;;;;;;10.00;9.30;;;;;;;;;;5084374;28;20460;-79
2023/05/15 06:05:51;;;;;;;10.73;9.87;;;;;;;;;;5083024;28;20483;-79
2023/05/15 06:08:18;;;;;;;11.53;10.53;;;;;;;;;;5081696;28;20542;-79
2023/05/15 06:10:44;;;;;;;11.07;9.77;;;;;;;;;;5083351;28;20965;-79
2023/05/15 06:13:13;;;;;;;11.13;10.23;;;;;;;;;;5083989;28;20455;-80
2023/05/15 06:15:40;;;;;;;11.10;10.20;;;;;;;;;;5079120;28;20483;-79
2023/05/15 06:18:07;;;;;;;12.20;11.30;;;;;;;;;;5083235;28;20525;-80
2023/05/15 06:20:34;;;;;;;14.13;10.60;;;;;;;;;;5083333;28;20476;-80
2023/05/15 06:23:00;;;;;;;12.47;11.53;;;;;;;;;;5083480;28;20455;-79
2023/05/15 06:25:27;;;;;;;12.33;10.77;;;;;;;;;;5082459;28;20472;-80
2023/05/15 06:27:54;;;;;;;10.07;9.27;;;;;;;;;;5083355;28;20464;-79
2023/05/15 06:30:21;;;;;;;10.90;10.00;;;;;;;;;;5077420;28;20460;-79
2023/05/15 06:32:47;;;;;;;10.50;9.70;;;;;;;;;;5083700;28;20479;-79
2023/05/15 06:35:15;;;;;;;12.33;11.23;;;;;;;;;;5082846;28;20444;-79
2023/05/15 06:37:41;;;;;;;13.00;11.70;;;;;;;;;;5081712;28;20476;-80
2023/05/15 06:40:09;;;;;;;12.67;11.57;;;;;;;;;;5083021;28;20444;-80
2023/05/15 06:42:35;;;;;;;12.77;11.37;;;;;;;;;;5082936;28;20444;-80
2023/05/15 06:45:01;;;;;;;11.80;10.80;;;;;;;;;;5081882;28;20447;-80
2023/05/15 06:47:28;;;;;;;12.57;11.60;;;;;;;;;;5085332;28;20541;-78
2023/05/15 06:49:55;;;;;;;12.07;11.03;;;;;;;;;;5079357;28;20468;-80
2023/05/15 06:52:23;;;;;;;13.20;12.00;;;;;;;;;;5081671;28;20583;-79
2023/05/15 06:54:50;;;;;;;12.60;11.30;;;;;;;;;;5081580;28;20464;-77
2023/05/15 06:57:17;;;;;;;13.30;11.97;;;;;;;;;;5081836;28;20470;-79
2023/05/15 06:59:43;;;;;;;13.63;12.50;;;;;;;;;;5080034;28;20532;-79
2023/05/15 07:02:10;;;;;;;12.30;11.10;;;;;;;;;;5081754;28;20551;-79
2023/05/15 07:04:37;;;;;;;12.20;11.20;;;;;;;;;;5083104;28;20523;-80
2023/05/15 07:07:03;;;;;;;12.13;11.23;;;;;;;;;;5082231;28;20472;-79
2023/05/15 07:09:31;;;;;;;12.77;11.67;;;;;;;;;;5080313;28;21019;-79
2023/05/15 07:11:58;;;;;;;12.60;11.60;;;;;;;;;;5082099;28;20478;-79
2023/05/15 07:14:24;;;;;;;12.43;11.40;;;;;;;;;;5086041;28;20773;-79
2023/05/15 07:16:51;;;;;;;12.40;11.40;;;;;;;;;;5081363;28;20556;-78
2023/05/15 07:19:19;;;;;;;11.70;10.63;;;;;;;;;;5081958;28;20527;-78
2023/05/15 07:21:46;;;;;;;11.70;10.80;;;;;;;;;;5081585;28;20479;-79
2023/05/15 07:24:12;;;;;;;11.43;10.43;;;;;;;;;;5080772;28;20452;-79
2023/05/15 07:26:40;;;;;;;10.53;9.73;;;;;;;;;;5082049;28;20817;-79
2023/05/15 07:29:07;;;;;;;11.50;10.40;;;;;;;;;;5081952;28;20458;-79
2023/05/15 07:31:33;;;;;;;11.27;10.23;;;;;;;;;;5080564;28;20475;-79
2023/05/15 07:34:00;;;;;;;12.00;10.90;;;;;;;;;;5080806;28;20452;-79
2023/05/15 07:36:26;;;;;;;13.17;12.17;;;;;;;;;;5081726;28;20476;-80
2023/05/15 07:38:53;;;;;;;17.30;11.03;;;;;;;;;;5081110;28;20498;-80
2023/05/15 07:41:20;;;;;;;11.53;10.53;;;;;;;;;;5080911;28;20479;-77
2023/05/15 07:43:48;;;;;;;12.70;11.70;;;;;;;;;;5081814;28;20547;-80
2023/05/15 07:46:15;;;;;;;13.70;11.83;;;;;;;;;;5083575;28;20501;-80
2023/05/15 07:48:41;;;;;;;13.57;12.37;;;;;;;;;;5089368;28;20482;-78
2023/05/15 07:51:08;;;;;;;13.70;12.30;;;;;;;;;;5081931;28;20502;-79
2023/05/15 07:53:34;;;;;;;13.53;12.23;;;;;;;;;;5080517;28;20462;-80
2023/05/15 07:56:01;;;;;;;12.43;11.43;;;;;;;;;;5080570;28;20480;-79
2023/05/15 07:58:27;;;;;;;13.87;12.77;;;;;;;;;;5078795;28;20490;-79
2023/05/15 08:00:55;;;;;;;14.70;13.30;;;;;;;;;;5077410;28;21056;-81
2023/05/15 08:03:21;;;;;;;12.57;11.37;;;;;;;;;;5079919;28;20939;-80
2023/05/15 08:05:48;;;;;;;11.43;10.53;;;;;;;;;;5080293;28;20529;-81
2023/05/15 08:08:14;;;;;;;11.37;10.43;;;;;;;;;;5080942;28;20517;-81
2023/05/15 08:10:41;;;;;;;11.30;10.20;;;;;;;;;;5080195;28;20472;-81
2023/05/15 08:13:07;;;;;;;11.63;10.63;;;;;;;;;;5081833;28;20450;-80
2023/05/15 08:15:34;;;;;;;11.20;10.10;;;;;;;;;;5079698;28;20483;-80
2023/05/15 08:18:02;;;;;;;11.40;10.40;;;;;;;;;;5081082;28;20495;-80
2023/05/15 08:20:28;;;;;;;11.70;10.80;;;;;;;;;;5079216;28;20552;-79
2023/05/15 08:22:55;;;;;;;11.17;10.20;;;;;;;;;;5075266;28;20459;-80
2023/05/15 08:25:21;;;;;;;11.70;10.70;;;;;;;;;;5080295;28;20501;-79
2023/05/15 08:27:47;;;;;;;11.03;10.20;;;;;;;;;;5079855;28;20444;-79
2023/05/15 08:30:14;;;;;;;12.83;11.60;;;;;;;;;;5079730;28;20476;-80
2023/05/15 08:32:42;;;;;;;12.27;11.27;;;;;;;;;;5086047;28;20522;-80
2023/05/15 08:35:10;;;;;;;13.33;10.60;;;;;;;;;;5078294;28;20471;-80
2023/05/15 08:37:37;;;;;;;13.77;12.50;;;;;;;;;;5080151;28;20448;-80
2023/05/15 08:40:06;;;;;;;14.00;12.53;;;;;;;;;;5079977;28;20487;-79
2023/05/15 08:42:35;;;;;;;13.50;12.20;;;;;;;;;;5079997;28;20531;-80
2023/05/15 08:45:02;;;;;;;12.37;11.20;;;;;;;;;;5071916;28;20468;-80
2023/05/15 08:47:29;;;;;;;11.83;10.93;;;;;;;;;;5083308;28;20484;-80
2023/05/15 08:49:59;;;;;;;12.30;11.20;;;;;;;;;;5084948;28;20447;-80
2023/05/15 08:52:27;;;;;;;11.63;10.73;;;;;;;;;;5075819;28;20824;-81
2023/05/15 08:54:54;;;;;;;11.73;10.83;;;;;;;;;;5083940;28;21110;-79
2023/05/15 08:57:21;;;;;;;12.43;11.13;;;;;;;;;;5084126;28;20475;-79
2023/05/15 08:59:48;;;;;;;11.33;10.33;;;;;;;;;;5088046;28;20559;-79
2023/05/15 09:02:15;;;;;;;12.87;11.77;;;;;;;;;;5086102;28;20501;-81
2023/05/15 09:04:42;;;;;;;14.33;12.40;;;;;;;;;;5084861;28;20455;-80
2023/05/15 09:07:09;;;;;;;11.80;10.60;;;;;;;;;;5084451;28;20471;-79
2023/05/15 09:09:37;;;;;;;12.30;11.23;;;;;;;;;;5084660;28;20486;-80
2023/05/15 09:12:04;;;;;;;14.00;12.80;;;;;;;;;;5085143;28;20471;-79
2023/05/15 09:14:33;;;;;;;14.63;13.33;;;;;;;;;;5102029;28;20567;-79
2023/05/15 09:17:00;;;;;;;15.03;13.63;;;;;;;;;;5077593;28;20475;-79
2023/05/15 09:19:27;;;;;;;14.90;13.70;;;;;;;;;;5085851;28;20493;-81
2023/05/15 09:21:54;;;;;;;13.10;11.77;;;;;;;;;;5085254;28;20475;-80
2023/05/15 09:24:22;;;;;;;12.63;11.20;;;;;;;;;;5084383;28;20472;-80
2023/05/15 09:27:02;;;;;;;12.33;11.20;;;;;;;;;;5091745;28;20479;-79
2023/05/15 09:29:30;;;;;;;14.30;13.00;;;;;;;;;;5086571;28;20471;-77
2023/05/15 09:31:57;;;;;;;17.10;15.50;;;;;;;;;;5075873;28;20549;-80
2023/05/15 09:34:29;;;;;;;16.20;14.80;;;;;;;;;;5086504;28;20454;-80
2023/05/15 09:36:55;;;;;;;18.60;16.87;;;;;;;;;;5085178;28;20475;-79
2023/05/15 09:39:22;;;;;;;17.83;16.10;;;;;;;;;;5085261;28;20488;-80
2023/05/15 09:41:49;;;;;;;18.53;16.83;;;;;;;;;;5086752;28;21230;-80
2023/05/15 09:44:24;;;;;;;20.70;18.80;;;;;;;;;;5085199;28;20462;-80
2023/05/15 09:46:50;;;;;;;20.07;18.37;;;;;;;;;;5084337;28;20547;-79
2023/05/15 09:49:17;;;;;;;21.10;19.30;;;;;;;;;;5085316;28;20475;-81
2023/05/15 09:51:45;;;;;;;22.27;19.93;;;;;;;;;;5087532;28;20486;-81
2023/05/15 09:54:14;;;;;;;20.80;18.90;;;;;;;;;;5084364;28;20451;-79
2023/05/15 09:56:41;;;;;;;21.27;19.33;;;;;;;;;;5076242;28;20491;-80
2023/05/15 09:59:12;;;;;;;16.10;14.60;;;;;;;;;;5084386;28;20523;-79
2023/05/15 10:01:42;;;;;;;14.80;13.30;;;;;;;;;;5083861;28;20481;-80
2023/05/15 10:04:09;;;;;;;17.13;15.63;;;;;;;;;;5092275;28;20718;-80
2023/05/15 10:06:36;;;;;;;16.20;14.63;;;;;;;;;;5080620;28;20487;-79
2023/05/15 10:09:03;;;;;;;16.43;14.80;;;;;;;;;;5082424;28;20479;-81
2023/05/15 10:11:30;;;;;;;14.03;12.80;;;;;;;;;;5063164;28;20469;-80
2023/05/15 10:13:57;;;;;;;12.07;10.97;;;;;;;;;;5069626;28;20456;-80
2023/05/15 10:16:24;;;;;;;14.10;12.70;;;;;;;;;;5074057;28;20475;-78
2023/05/15 10:18:52;;;;;;;12.50;11.40;;;;;;;;;;5062197;28;20549;-80
2023/05/15 10:21:20;;;;;;;11.50;10.10;;;;;;;;;;5063739;28;20555;-79
2023/05/15 10:23:47;;;;;;;9.60;8.60;;;;;;;;;;5069992;28;20551;-79
2023/05/15 10:26:19;;;;;;;7.53;6.83;;;;;;;;;;5062388;28;21080;-81
2023/05/15 10:28:46;;;;;;;7.40;5.33;;;;;;;;;;5062713;28;20453;-80
2023/05/15 10:31:12;;;;;;;7.13;6.07;;;;;;;;;;5061452;28;20480;-78
2023/05/15 10:33:39;;;;;;;6.20;5.40;;;;;;;;;;5063257;28;20966;-78
2023/05/15 10:36:08;;;;;;;9.73;8.00;;;;;;;;;;5068435;28;20472;-79
2023/05/15 10:38:35;;;;;;;9.33;8.43;;;;;;;;;;5056252;28;20502;-79
2023/05/15 10:41:03;;;;;;;11.43;10.27;;;;;;;;;;5066345;28;20502;-79
2023/05/15 10:43:30;;;;;;;9.73;8.93;;;;;;;;;;5062856;28;20456;-80
2023/05/15 10:45:57;;;;;;;12.27;10.67;;;;;;;;;;5060738;28;20543;-80
2023/05/15 10:48:24;;;;;;;13.60;12.37;;;;;;;;;;5061135;28;20480;-78
2023/05/15 10:50:50;;;;;;;14.50;13.20;;;;;;;;;;5059615;28;20503;-80
2023/05/15 10:53:19;;;;;;;15.17;13.73;;;;;;;;;;5059672;28;20477;-80
2023/05/15 10:55:48;;;;;;;14.07;12.77;;;;;;;;;;5059218;28;20532;-80
2023/05/15 10:58:14;;;;;;;14.80;13.37;;;;;;;;;;5063545;28;20456;-81
2023/05/15 11:00:41;;;;;;;15.50;14.20;;;;;;;;;;5064557;28;20465;-81
2023/05/15 11:03:08;;;;;;;16.40;14.90;;;;;;;;;;5060020;28;20925;-79
2023/05/15 11:05:50;;;;;;;17.57;15.93;;;;;;;;;;5069815;28;20476;-79
2023/05/15 11:08:26;;;;;;;16.53;14.77;;;;;;;;;;5060080;28;20464;-80
2023/05/15 11:10:52;;;;;;;15.57;13.73;;;;;;;;;;5056051;28;20476;-80
2023/05/15 11:13:19;;;;;;;15.90;14.27;;;;;;;;;;5058395;28;20506;-80
2023/05/15 11:15:46;;;;;;;19.27;17.30;;;;;;;;;;5060174;28;21181;-81
2023/05/15 11:18:13;;;;;;;20.87;18.87;;;;;;;;;;5055685;28;20529;-81
2023/05/15 11:20:40;;;;;;;27.57;24.33;;;;;;;;;;5061469;28;20782;-80
2023/05/15 11:23:07;;;;;;;29.00;25.90;;;;;;;;;;5060221;28;20465;-80
2023/05/15 11:25:35;;;;;;;29.73;26.63;;;;;;;;;;5063442;28;20471;-79
2023/05/15 11:28:02;;;;;;;28.40;25.77;;;;;;;;;;5060402;28;20449;-80
2023/05/15 11:30:37;;;;;;;27.97;24.97;;;;;;;;;;5063544;28;20476;-79
2023/05/15 11:33:07;;;;;;;27.63;24.30;;;;;;;;;;5061798;28;20810;-80
2023/05/15 11:35:34;;;;;;;27.20;24.27;;;;;;;;;;5058673;28;20469;-77
2023/05/15 11:38:03;;;;;;;28.20;25.20;;;;;;;;;;5064501;28;20500;-79
2023/05/15 11:40:30;;;;;;;27.60;24.17;;;;;;;;;;5058839;28;21291;-79
2023/05/15 11:43:05;;;;;;;27.10;24.33;;;;;;;;;;5063592;28;20436;-80
2023/05/15 11:45:33;;;;;;;25.73;23.13;;;;;;;;;;5061546;28;20531;-80
2023/05/15 11:48:04;;;;;;;26.33;23.30;;;;;;;;;;5061351;28;20467;-79
2023/05/15 11:50:30;;;;;;;25.57;22.77;;;;;;;;;;5060120;28;20818;-80
2023/05/15 11:52:57;;;;;;;26.63;23.93;;;;;;;;;;5062281;28;20441;-79
2023/05/15 11:55:25;;;;;;;27.17;24.20;;;;;;;;;;5053693;28;20456;-79
2023/05/15 11:57:51;;;;;;;25.50;22.80;;;;;;;;;;5060547;28;20452;-80
2023/05/15 12:00:21;;;;;;;25.07;21.97;;;;;;;;;;5060258;28;20781;-79
2023/05/15 12:02:47;;;;;;;23.93;21.53;;;;;;;;;;5065543;28;20479;-80
2023/05/15 12:05:14;;;;;;;20.83;18.70;;;;;;;;;;5061084;28;20530;-80
2023/05/15 12:07:42;;;;;;;19.30;17.27;;;;;;;;;;5061998;28;20461;-79
2023/05/15 12:10:10;;;;;;;21.67;19.13;;;;;;;;;;5065447;28;20956;-79
2023/05/15 12:12:36;;;;;;;22.20;20.00;;;;;;;;;;5083158;28;20459;-79
2023/05/15 12:15:04;;;;;;;23.27;20.97;;;;;;;;;;5087591;28;20841;-79
2023/05/15 12:17:32;;;;;;;22.70;20.30;;;;;;;;;;5081303;28;20464;-79
2023/05/15 12:19:59;;;;;;;20.67;18.43;;;;;;;;;;5084671;28;20500;-81
2023/05/15 12:22:26;;;;;;;17.20;15.40;;;;;;;;;;5060931;28;20510;-80
2023/05/15 12:24:52;;;;;;;25.57;15.90;;;;;;;;;;5077379;28;20474;-79
2023/05/15 12:27:19;;;;;;;16.77;15.07;;;;;;;;;;5082061;28;20478;-79
2023/05/15 12:29:46;;;;;;;14.03;12.63;;;;;;;;;;5080350;28;20466;-80
2023/05/15 12:32:12;;;;;;;16.47;12.07;;;;;;;;;;5079026;28;20479;-77
2023/05/15 12:34:40;;;;;;;14.47;11.97;;;;;;;;;;5083036;28;20479;-78
2023/05/15 12:37:11;;;;;;;13.53;11.43;;;;;;;;;;5080453;28;20471;-79
2023/05/15 12:39:49;;;;;;;10.93;9.83;;;;;;;;;;5081705;28;20487;-79
2023/05/15 12:42:15;;;;;;;12.03;10.83;;;;;;;;;;5080463;28;20486;-80
2023/05/15 12:44:44;;;;;;;10.87;9.87;;;;;;;;;;5080445;28;20456;-80
2023/05/15 12:47:13;;;;;;;10.27;9.27;;;;;;;;;;5080836;28;20494;-77
2023/05/15 12:49:42;;;;;;;10.13;9.23;;;;;;;;;;5080471;28;20456;-77
2023/05/15 12:52:09;;;;;;;11.07;9.97;;;;;;;;;;5081781;28;20484;-77
2023/05/15 12:54:38;;;;;;;11.97;10.57;;;;;;;;;;5079379;28;20531;-85
2023/05/15 12:57:05;;;;;;;10.40;9.50;;;;;;;;;;5082481;28;20482;-85
2023/05/15 12:59:32;;;;;;;11.90;10.70;;;;;;;;;;5080443;28;20523;-85
2023/05/15 13:01:59;;;;;;;14.63;13.20;;;;;;;;;;5081604;28;20479;-87
2023/05/15 13:04:25;;;;;;;12.27;11.00;;;;;;;;;;5082764;28;20454;-83
2023/05/15 13:06:53;;;;;;;10.47;9.57;;;;;;;;;;5082105;28;20603;-85
2023/05/15 13:09:21;;;;;;;10.27;9.23;;;;;;;;;;5086978;28;20490;-79
2023/05/15 13:11:48;;;;;;;12.30;11.00;;;;;;;;;;5081984;28;20498;-80
2023/05/15 13:14:16;;;;;;;15.90;11.20;;;;;;;;;;5085042;28;20460;-79
2023/05/15 13:16:43;;;;;;;12.47;11.20;;;;;;;;;;5086927;28;20488;-78
2023/05/15 13:19:10;;;;;;;14.37;11.90;;;;;;;;;;5081094;28;20476;-79
2023/05/15 13:21:37;;;;;;;12.83;11.60;;;;;;;;;;5079923;28;20475;-79
2023/05/15 13:24:05;;;;;;;12.17;10.97;;;;;;;;;;5080134;28;20494;-79
2023/05/15 13:26:31;;;;;;;13.30;12.00;;;;;;;;;;5087304;28;20545;-79
2023/05/15 13:28:58;;;;;;;13.57;12.27;;;;;;;;;;5071732;28;20482;-78
2023/05/15 13:31:25;;;;;;;13.23;10.60;;;;;;;;;;5074758;28;20480;-78
2023/05/15 13:33:52;;;;;;;15.37;10.17;;;;;;;;;;5085443;28;20435;-80
2023/05/15 13:36:18;;;;;;;11.53;10.27;;;;;;;;;;5083294;28;20503;-80
2023/05/15 13:38:45;;;;;;;14.03;12.40;;;;;;;;;;5085306;28;20456;-80
2023/05/15 13:41:13;;;;;;;11.07;9.97;;;;;;;;;;5082910;28;20546;-79
2023/05/15 13:43:39;;;;;;;12.33;11.07;;;;;;;;;;5086647;28;20450;-80
2023/05/15 13:46:06;;;;;;;12.57;11.40;;;;;;;;;;5080425;28;20479;-80
2023/05/15 13:48:32;;;;;;;12.07;10.67;;;;;;;;;;5078660;28;20433;-78
2023/05/15 13:50:59;;;;;;;10.60;9.50;;;;;;;;;;5080044;28;20574;-78
2023/05/15 13:53:26;;;;;;;12.20;11.07;;;;;;;;;;5086707;28;20599;-78
2023/05/15 13:55:53;;;;;;;12.57;11.37;;;;;;;;;;5089830;28;20480;-78
2023/05/15 13:58:21;;;;;;;12.13;10.93;;;;;;;;;;5084446;28;20530;-78
2023/05/15 14:00:48;;;;;;;13.63;12.13;;;;;;;;;;5090463;28;20546;-78
2023/05/15 14:03:14;;;;;;;14.80;13.37;;;;;;;;;;5084877;28;20456;-76
2023/05/15 14:05:41;;;;;;;13.30;11.43;;;;;;;;;;5081157;28;21002;-74
2023/05/15 14:08:08;;;;;;;12.93;11.30;;;;;;;;;;5085902;28;20540;-75
2023/05/15 14:10:35;;;;;;;17.73;12.07;;;;;;;;;;5086669;28;20484;-75
2023/05/15 14:13:02;;;;;;;13.10;11.83;;;;;;;;;;5083281;28;20444;-75
2023/05/15 14:15:30;;;;;;;13.03;11.73;;;;;;;;;;5086508;28;20488;-74
2023/05/15 14:17:56;;;;;;;15.07;13.57;;;;;;;;;;5083662;28;20472;-74
2023/05/15 14:20:23;;;;;;;14.60;12.83;;;;;;;;;;5083306;28;20491;-75